Latest METARs, TAFs and NOTAMs for MMTO


---------------------------------------------------------------------------
	(OBSERVATIONS)
MMTO 231349Z 27004KT 7SM  FEW070 BKN200 09/06 A3047  RMK 8/032
    HZY=
MMTO 231248Z 31008KT 7SM  SCT070 BKN200 05/04 A3045  RMK 8/032
    HZY=
---------------------------------------------------------------------------
	(TERMINAL AREA FORECAST)
COR MMTO 231157Z 2312/2418 00000KT 5SM HZ SCT200 TX19/2320Z
    TN05/2312Z
    TEMPO 2312/2316 2SM BR
    FM231600 04010KT 5SM HZ BKN015 BKN070
    BECMG 2401/2402 04006KT
    BECMG 2409/2410 3SM BR BKN010
    TEMPO 2412/2416 1SM BR OVC006=
---------------------------------------------------------------------------
	(NOTAMS)


MMTO A0572/17 CHANGED NAME OF THE FOLLOWING REPORTING POINTS:
    LIMBO TO TAKUG NOGAL TO LENEG PUBLISHED IN CHART AD-MMTO-LL-1,
    AD-MMTO-LL-4, AD-MMTO-LL-7-RNAV/LL-8-RNAV PUBLISHED IN ANEX
    TO SUP 06/12 DATE 21-SEP-2012 MEXICO AIP. 27 JAN 03:46 2017
    UNTIL PERM. CREATED: 27 JAN 04:02 2017

---------------------------------------------------------------------------